createdAt,value
2023-03-20T00:02:22.135Z,3.77
2023-03-20T00:04:51.181Z,3.73
2023-03-20T00:07:19.600Z,3.71
2023-03-20T00:09:48.802Z,3.69
2023-03-20T00:12:24.256Z,3.69
2023-03-20T00:14:53.163Z,3.69
2023-03-20T00:17:21.717Z,3.69
2023-03-20T00:19:50.592Z,3.68
2023-03-20T00:22:19.077Z,3.68
2023-03-20T00:24:47.873Z,3.68
2023-03-20T00:27:18.003Z,3.69
2023-03-20T00:29:46.778Z,3.69
2023-03-20T00:32:15.868Z,3.69
2023-03-20T00:34:44.567Z,3.68
2023-03-20T00:37:14.773Z,3.67
2023-03-20T00:39:43.367Z,3.66
2023-03-20T00:42:21.341Z,3.64
2023-03-20T00:44:54.650Z,3.62
2023-03-20T00:47:26.018Z,3.59
2023-03-20T00:49:56.177Z,3.55
2023-03-20T00:52:25.184Z,3.49
2023-03-20T00:54:53.736Z,3.44
2023-03-20T00:57:29.555Z,3.38
2023-03-20T01:00:05.207Z,3.33
2023-03-20T01:02:34.734Z,3.26
2023-03-20T01:05:05.761Z,3.22
2023-03-20T01:07:34.151Z,3.18
2023-03-20T01:10:05.991Z,3.13
2023-03-20T01:12:34.384Z,3.09
2023-03-20T01:15:02.655Z,3.05
2023-03-20T01:17:31.345Z,3.02
2023-03-20T01:19:59.741Z,3.01
2023-03-20T01:22:28.105Z,3.00
2023-03-20T01:24:56.373Z,3.00
2023-03-20T01:27:24.752Z,3.00
2023-03-20T01:29:53.399Z,3.01
2023-03-20T01:32:21.820Z,3.02
2023-03-20T01:34:53.169Z,3.06
2023-03-20T01:37:27.630Z,3.10
2023-03-20T01:39:58.139Z,3.14
2023-03-20T01:42:26.595Z,3.18
2023-03-20T01:44:54.940Z,3.21
2023-03-20T01:47:25.111Z,3.22
2023-03-20T01:50:18.974Z,3.22
2023-03-20T01:52:50.920Z,3.22
2023-03-20T01:55:21.318Z,3.22
2023-03-20T01:57:56.503Z,3.21
2023-03-20T02:00:25.190Z,3.20
2023-03-20T02:02:55.001Z,3.17
2023-03-20T02:05:43.931Z,3.13
2023-03-20T02:08:40.195Z,3.07
2023-03-20T02:11:08.884Z,3.01
2023-03-20T02:13:38.182Z,2.96
2023-03-20T02:16:11.330Z,2.91
2023-03-20T02:19:00.441Z,2.84
2023-03-20T02:22:01.278Z,2.80
2023-03-20T02:24:35.804Z,2.73
2023-03-20T02:27:16.776Z,2.68
2023-03-20T02:30:03.690Z,2.63
2023-03-20T02:32:36.114Z,2.58
2023-03-20T02:35:39.172Z,2.55
2023-03-20T02:38:23.721Z,2.52
2023-03-20T02:41:13.376Z,2.50
2023-03-20T02:44:07.893Z,2.48
2023-03-20T02:46:39.045Z,2.46
2023-03-20T02:49:26.249Z,2.47
2023-03-20T02:52:08.558Z,2.47
2023-03-20T02:54:41.339Z,2.48
2023-03-20T02:57:14.779Z,2.52
2023-03-20T03:00:05.536Z,2.54
2023-03-20T03:02:39.631Z,2.56
2023-03-20T03:05:17.325Z,2.56
2023-03-20T03:07:51.010Z,2.55
2023-03-20T03:10:27.427Z,2.54
2023-03-20T03:12:58.982Z,2.53
2023-03-20T03:15:40.837Z,2.50
2023-03-20T03:18:16.610Z,2.45
2023-03-20T03:20:48.346Z,2.42
2023-03-20T03:23:43.382Z,2.37
2023-03-20T03:26:42.484Z,2.33
2023-03-20T03:29:14.035Z,2.26
2023-03-20T03:31:44.721Z,2.21
2023-03-20T03:34:16.418Z,2.16
2023-03-20T03:37:21.463Z,2.11
2023-03-20T03:40:32.649Z,2.06
2023-03-20T03:43:17.321Z,2.00
2023-03-20T03:45:52.862Z,1.99
2023-03-20T03:48:31.375Z,1.96
2023-03-20T03:51:07.455Z,1.94
2023-03-20T03:53:41.549Z,1.93
2023-03-20T03:56:14.084Z,1.93
2023-03-20T03:58:47.210Z,1.92
2023-03-20T04:01:17.971Z,1.94
2023-03-20T04:03:51.308Z,1.95
2023-03-20T04:06:20.553Z,1.96
2023-03-20T04:08:48.925Z,1.97
2023-03-20T04:11:20.744Z,1.98
2023-03-20T04:13:51.564Z,1.98
2023-03-20T04:16:23.551Z,1.99
2023-03-20T04:18:53.704Z,2.00
2023-03-20T04:21:22.801Z,1.99
2023-03-20T04:23:52.818Z,1.97
2023-03-20T04:26:23.759Z,1.96
2023-03-20T04:28:52.246Z,1.95
2023-03-20T04:31:36.200Z,1.93
2023-03-20T04:34:19.024Z,1.92
2023-03-20T04:37:08.696Z,1.89
2023-03-20T04:40:04.317Z,1.89
2023-03-20T04:42:32.675Z,1.89
2023-03-20T04:45:05.772Z,1.90
2023-03-20T04:47:34.145Z,1.94
2023-03-20T04:50:02.527Z,1.99
2023-03-20T04:52:32.029Z,2.04
2023-03-20T04:55:00.522Z,2.12
2023-03-20T04:57:29.098Z,2.21
2023-03-20T04:59:57.192Z,2.34
2023-03-20T05:02:25.956Z,2.52
2023-03-20T05:04:54.572Z,2.69
2023-03-20T05:07:22.921Z,2.86
2023-03-20T05:10:04.816Z,3.04
2023-03-20T05:12:38.419Z,3.19
2023-03-20T05:15:25.636Z,3.31
2023-03-20T05:18:12.448Z,3.39
2023-03-20T05:21:01.510Z,3.47
2023-03-20T05:23:51.809Z,3.66
2023-03-20T05:26:51.212Z,3.87
2023-03-20T05:29:51.947Z,4.13
2023-03-20T05:32:42.206Z,4.61
2023-03-20T05:35:33.796Z,5.35
2023-03-20T05:38:16.481Z,6.16
2023-03-20T05:40:59.421Z,6.86
2023-03-20T05:43:44.164Z,7.25
2023-03-20T05:46:31.351Z,7.39
2023-03-20T05:49:27.419Z,7.40
2023-03-20T05:52:22.918Z,7.53
2023-03-20T05:55:11.478Z,7.67
2023-03-20T05:58:00.152Z,7.82
2023-03-20T06:00:41.522Z,7.96
2023-03-20T06:03:38.984Z,7.89
2023-03-20T06:06:12.478Z,7.74
2023-03-20T06:08:43.304Z,7.65
2023-03-20T06:11:12.008Z,7.59
2023-03-20T06:13:40.481Z,7.57
2023-03-20T06:16:09.726Z,7.57
2023-03-20T06:18:39.461Z,7.55
2023-03-20T06:21:09.628Z,7.46
2023-03-20T06:23:37.996Z,7.40
2023-03-20T06:26:07.154Z,7.39
2023-03-20T06:28:46.427Z,7.47
2023-03-20T06:31:15.194Z,7.50
2023-03-20T06:33:44.612Z,7.51
2023-03-20T06:36:14.128Z,7.54
2023-03-20T06:38:42.399Z,7.62
2023-03-20T06:41:27.734Z,7.76
2023-03-20T06:44:04.047Z,7.97
2023-03-20T06:46:50.150Z,8.14
2023-03-20T06:49:19.018Z,8.18
2023-03-20T06:51:48.424Z,8.20
2023-03-20T06:54:23.406Z,8.22
2023-03-20T06:56:53.171Z,8.24
2023-03-20T06:59:22.820Z,8.28
2023-03-20T07:01:56.858Z,8.36
2023-03-20T07:04:25.884Z,8.43
2023-03-20T07:06:58.563Z,8.52
2023-03-20T07:09:27.273Z,8.62
2023-03-20T07:11:55.536Z,8.64
2023-03-20T07:14:24.321Z,8.73
2023-03-20T07:16:57.091Z,8.78
2023-03-20T07:19:25.694Z,8.84
2023-03-20T07:22:02.100Z,8.94
2023-03-20T07:24:35.023Z,9.02
2023-03-20T07:27:03.328Z,9.08
2023-03-20T07:29:31.903Z,9.24
2023-03-20T07:32:01.183Z,9.46
2023-03-20T07:34:37.057Z,9.64
2023-03-20T07:37:05.947Z,9.88
2023-03-20T07:39:35.553Z,10.03
2023-03-20T07:42:23.908Z,10.24
2023-03-20T07:44:59.170Z,10.31
2023-03-20T07:47:28.362Z,10.33
2023-03-20T07:49:56.714Z,10.36
2023-03-20T07:52:24.993Z,10.32
2023-03-20T07:54:54.397Z,10.26
2023-03-20T07:57:22.980Z,10.24
2023-03-20T07:59:51.459Z,10.29
2023-03-20T08:02:19.633Z,10.31
2023-03-20T08:04:48.320Z,10.40
2023-03-20T08:07:16.912Z,10.45
2023-03-20T08:09:45.800Z,10.62
2023-03-20T08:12:14.548Z,10.83
2023-03-20T08:14:44.400Z,11.03
2023-03-20T08:17:15.493Z,11.23
2023-03-20T08:19:46.035Z,11.55
2023-03-20T08:22:14.148Z,11.89
2023-03-20T08:24:42.319Z,12.02
2023-03-20T08:27:10.813Z,12.15
2023-03-20T08:29:39.287Z,12.44
2023-03-20T08:32:07.769Z,12.93
2023-03-20T08:34:36.052Z,13.37
2023-03-20T08:37:05.352Z,13.78
2023-03-20T08:39:34.543Z,14.32
2023-03-20T08:42:03.363Z,14.89
2023-03-20T08:44:32.225Z,15.20
2023-03-20T08:47:01.012Z,15.53
2023-03-20T08:49:29.406Z,15.77
2023-03-20T08:51:58.184Z,15.86
2023-03-20T08:54:26.965Z,16.12
2023-03-20T08:56:55.885Z,16.37
2023-03-20T08:59:24.232Z,16.49
2023-03-20T09:01:52.431Z,16.62
2023-03-20T09:04:21.309Z,16.69
2023-03-20T09:06:50.394Z,16.71
2023-03-20T09:09:20.419Z,17.07
2023-03-20T09:11:48.896Z,17.33
2023-03-20T09:14:17.682Z,17.35
2023-03-20T09:16:46.374Z,17.42
2023-03-20T09:19:15.567Z,17.60
2023-03-20T09:21:44.166Z,17.74
2023-03-20T09:24:12.689Z,17.86
2023-03-20T09:26:41.222Z,17.97
2023-03-20T09:29:09.603Z,17.84
2023-03-20T09:31:38.022Z,17.61
2023-03-20T09:34:06.565Z,17.52
2023-03-20T09:36:34.938Z,17.39
2023-03-20T09:39:04.456Z,17.42
2023-03-20T09:41:52.975Z,17.58
2023-03-20T09:44:30.657Z,17.86
2023-03-20T09:47:40.239Z,18.16
2023-03-20T09:50:41.712Z,18.54
2023-03-20T09:53:31.272Z,18.64
2023-03-20T09:56:00.427Z,18.98
2023-03-20T09:58:33.976Z,19.44
2023-03-20T10:01:05.805Z,19.85
2023-03-20T10:03:43.223Z,20.00
2023-03-20T10:06:17.085Z,20.26
2023-03-20T10:08:46.536Z,20.54
2023-03-20T10:11:45.939Z,20.84
2023-03-20T10:14:23.429Z,21.18
2023-03-20T10:17:17.646Z,21.37
2023-03-20T10:19:57.875Z,21.59
2023-03-20T10:22:33.110Z,21.93
2023-03-20T10:25:32.280Z,22.31
2023-03-20T10:28:04.454Z,22.53
2023-03-20T10:30:48.135Z,22.62
2023-03-20T10:33:31.857Z,22.48
2023-03-20T10:36:22.178Z,22.42
2023-03-20T10:38:57.456Z,22.42
2023-03-20T10:41:32.385Z,22.43
2023-03-20T10:44:02.058Z,22.53
2023-03-20T10:46:43.454Z,22.61
2023-03-20T10:49:17.686Z,22.75
2023-03-20T10:51:52.726Z,22.90
2023-03-20T10:54:42.141Z,22.92
2023-03-20T10:57:35.199Z,22.79
2023-03-20T11:00:05.486Z,22.65
2023-03-20T11:02:34.012Z,22.39
2023-03-20T11:05:23.583Z,22.33
2023-03-20T11:08:01.589Z,22.17
2023-03-20T11:10:32.710Z,22.18
2023-03-20T11:13:23.230Z,22.26
2023-03-20T11:15:53.905Z,22.34
2023-03-20T11:18:25.825Z,22.35
2023-03-20T11:20:58.209Z,22.34
2023-03-20T11:23:30.779Z,22.25
2023-03-20T11:26:04.062Z,22.05
2023-03-20T11:28:32.249Z,21.93
2023-03-20T11:31:24.944Z,21.87
2023-03-20T11:34:10.072Z,21.78
2023-03-20T11:36:41.389Z,21.79
2023-03-20T11:39:14.821Z,21.91
2023-03-20T11:41:45.752Z,21.96
2023-03-20T11:44:36.459Z,21.85
2023-03-20T11:47:20.403Z,21.86
2023-03-20T11:49:55.167Z,21.88
2023-03-20T11:52:29.713Z,21.73
2023-03-20T11:55:00.385Z,21.63
2023-03-20T11:57:31.429Z,21.49
2023-03-20T12:00:07.622Z,21.17
2023-03-20T12:02:37.441Z,20.72
2023-03-20T12:05:36.603Z,20.59
2023-03-20T12:08:13.893Z,20.61
2023-03-20T12:10:49.436Z,20.43
2023-03-20T12:13:42.811Z,20.42
2023-03-20T12:16:17.122Z,20.55
2023-03-20T12:19:18.265Z,20.62
2023-03-20T12:21:52.567Z,20.86
2023-03-20T12:24:28.135Z,21.09
2023-03-20T12:27:10.136Z,21.31
2023-03-20T12:30:00.959Z,21.39
2023-03-20T12:32:42.914Z,21.43
2023-03-20T12:35:16.789Z,21.52
2023-03-20T12:37:45.064Z,21.54
2023-03-20T12:40:17.495Z,21.50
2023-03-20T12:43:03.670Z,21.54
2023-03-20T12:45:47.429Z,21.56
2023-03-20T12:48:37.423Z,21.57
2023-03-20T12:51:24.745Z,21.46
2023-03-20T12:54:11.755Z,21.31
2023-03-20T12:56:52.224Z,21.20
2023-03-20T12:59:38.929Z,21.17
2023-03-20T13:02:57.603Z,21.09
2023-03-20T13:06:04.581Z,21.00
2023-03-20T13:08:51.795Z,20.92
2023-03-20T13:11:41.476Z,20.92
2023-03-20T13:14:14.659Z,20.92
2023-03-20T13:16:52.039Z,20.83
2023-03-20T13:19:54.530Z,20.78
2023-03-20T13:22:42.364Z,20.84
2023-03-20T13:25:13.304Z,20.90
2023-03-20T13:28:03.084Z,20.90
2023-03-20T13:30:31.164Z,20.95
2023-03-20T13:33:36.498Z,20.99
2023-03-20T13:36:16.984Z,20.98
2023-03-20T13:38:53.742Z,21.03
2023-03-20T13:41:24.490Z,21.03
2023-03-20T13:44:03.683Z,21.07
2023-03-20T13:46:38.274Z,21.09
2023-03-20T13:49:34.058Z,21.06
2023-03-20T13:52:15.704Z,20.98
2023-03-20T13:55:21.581Z,20.88
2023-03-20T13:58:19.581Z,20.79
2023-03-20T14:00:54.146Z,20.71
2023-03-20T14:03:28.669Z,20.72
2023-03-20T14:05:57.433Z,20.65
2023-03-20T14:08:30.506Z,20.52
2023-03-20T14:11:11.276Z,20.38
2023-03-20T14:13:43.061Z,20.22
2023-03-20T14:16:15.892Z,20.17
2023-03-20T14:18:47.606Z,20.20
2023-03-20T14:21:21.294Z,20.14
2023-03-20T14:24:02.760Z,19.99
2023-03-20T14:26:41.986Z,19.92
2023-03-20T14:29:10.168Z,19.88
2023-03-20T14:31:42.408Z,19.90
2023-03-20T14:34:13.710Z,19.87
2023-03-20T14:37:03.402Z,19.80
2023-03-20T14:39:34.503Z,19.65
2023-03-20T14:42:11.589Z,19.47
2023-03-20T14:44:52.358Z,19.33
2023-03-20T14:47:24.962Z,19.17
2023-03-20T14:50:11.338Z,19.00
2023-03-20T14:52:45.571Z,18.87
2023-03-20T14:55:19.776Z,18.77
2023-03-20T14:57:56.690Z,18.67
2023-03-20T15:00:35.993Z,18.55
2023-03-20T15:03:04.267Z,18.45
2023-03-20T15:05:36.287Z,18.36
2023-03-20T15:08:28.769Z,18.27
2023-03-20T15:11:04.242Z,18.15
2023-03-20T15:13:36.029Z,18.04
2023-03-20T15:16:08.444Z,17.94
2023-03-20T15:21:41.453Z,17.73
2023-03-20T15:24:30.944Z,17.64
2023-03-20T15:27:01.783Z,17.54
2023-03-20T15:29:33.167Z,17.45
2023-03-20T15:32:13.950Z,17.33
2023-03-20T15:34:44.728Z,17.22
2023-03-20T15:37:18.357Z,17.12
2023-03-20T15:39:54.046Z,17.03
2023-03-20T15:42:25.755Z,16.94
2023-03-20T15:44:56.874Z,16.86
2023-03-20T15:47:26.368Z,16.76
2023-03-20T15:49:55.893Z,16.67
2023-03-20T15:52:53.214Z,16.57
2023-03-20T15:55:24.937Z,16.46
2023-03-20T15:57:57.283Z,16.35
2023-03-20T16:00:35.564Z,16.23
2023-03-20T16:03:08.028Z,16.11
2023-03-20T16:05:36.646Z,16.00
2023-03-20T16:08:21.708Z,15.90
2023-03-20T16:10:59.574Z,15.77
2023-03-20T16:13:33.155Z,15.65
2023-03-20T16:16:03.557Z,15.54
2023-03-20T16:18:36.797Z,15.43
2023-03-20T16:21:27.850Z,15.32
2023-03-20T16:23:59.094Z,15.19
2023-03-20T16:26:28.101Z,15.09
2023-03-20T16:29:00.405Z,14.98
2023-03-20T16:31:36.249Z,14.87
2023-03-20T16:34:08.716Z,14.75
2023-03-20T16:36:38.885Z,14.64
2023-03-20T16:39:18.143Z,14.52
2023-03-20T16:41:50.517Z,14.40
2023-03-20T16:44:25.041Z,14.28
2023-03-20T16:47:21.475Z,14.17
2023-03-20T16:50:02.571Z,14.04
2023-03-20T16:52:37.406Z,13.94
2023-03-20T16:55:12.198Z,13.84
2023-03-20T16:57:40.691Z,13.74
2023-03-20T17:00:23.810Z,13.64
2023-03-20T17:02:59.955Z,13.53
2023-03-20T17:05:44.238Z,13.42
2023-03-20T17:08:15.086Z,13.31
2023-03-20T17:10:46.375Z,13.21
2023-03-20T17:13:15.408Z,13.12
2023-03-20T17:15:44.841Z,13.01
2023-03-20T17:18:14.629Z,12.92
2023-03-20T17:20:43.004Z,12.83
2023-03-20T17:23:16.643Z,12.73
2023-03-20T17:25:45.000Z,12.62
2023-03-20T17:28:20.851Z,12.54
2023-03-20T17:30:50.683Z,12.45
2023-03-20T17:33:21.201Z,12.35
2023-03-20T17:35:49.799Z,12.26
2023-03-20T17:38:22.243Z,12.17
2023-03-20T17:40:51.981Z,12.07
2023-03-20T17:43:20.335Z,11.98
2023-03-20T17:45:49.036Z,11.89
2023-03-20T17:48:20.909Z,11.78
2023-03-20T17:50:53.253Z,11.69
2023-03-20T17:53:29.013Z,11.58
2023-03-20T17:55:57.997Z,11.47
2023-03-20T17:58:26.280Z,11.36
2023-03-20T18:00:55.631Z,11.27
2023-03-20T18:03:23.762Z,11.18
2023-03-20T18:05:52.048Z,11.08
2023-03-20T18:08:22.299Z,10.99
2023-03-20T18:10:52.534Z,10.90
2023-03-20T18:13:22.905Z,10.80
2023-03-20T18:15:53.811Z,10.72
2023-03-20T18:18:24.120Z,10.62
2023-03-20T18:20:54.933Z,10.55
2023-03-20T18:23:23.486Z,10.45
2023-03-20T18:25:52.059Z,10.36
2023-03-20T18:28:24.644Z,10.29
2023-03-20T18:30:53.046Z,10.20
2023-03-20T18:33:26.830Z,10.12
2023-03-20T18:35:55.059Z,10.04
2023-03-20T18:38:25.033Z,9.97
2023-03-20T18:40:53.300Z,9.91
2023-03-20T18:43:21.684Z,9.85
2023-03-20T18:45:49.985Z,9.79
2023-03-20T18:48:18.343Z,9.74
2023-03-20T18:50:51.104Z,9.70
2023-03-20T18:53:19.817Z,9.64
2023-03-20T18:55:47.978Z,9.59
2023-03-20T18:58:27.622Z,9.54
2023-03-20T19:00:58.198Z,9.48
2023-03-20T19:03:28.764Z,9.44
2023-03-20T19:05:58.598Z,9.38
2023-03-20T19:08:26.871Z,9.32
2023-03-20T19:10:55.206Z,9.26
2023-03-20T19:13:24.960Z,9.20
2023-03-20T19:15:54.828Z,9.13
2023-03-20T19:18:26.169Z,9.08
2023-03-20T19:20:56.647Z,9.04
2023-03-20T19:23:29.041Z,8.98
2023-03-20T19:25:57.299Z,8.94
2023-03-20T19:28:38.815Z,8.90
2023-03-20T19:31:10.023Z,8.85
2023-03-20T19:33:39.313Z,8.80
2023-03-20T19:36:24.382Z,8.74
2023-03-20T19:38:53.364Z,8.69
2023-03-20T19:41:22.039Z,8.64
2023-03-20T19:43:53.501Z,8.60
2023-03-20T19:46:39.822Z,8.56
2023-03-20T19:49:18.601Z,8.52
2023-03-20T19:51:48.892Z,8.48
2023-03-20T19:54:17.811Z,8.43
2023-03-20T19:56:46.260Z,8.39
2023-03-20T19:59:16.700Z,8.35
2023-03-20T20:01:46.275Z,8.31
2023-03-20T20:04:15.487Z,8.28
2023-03-20T20:06:47.229Z,8.24
2023-03-20T20:09:16.355Z,8.21
2023-03-20T20:11:44.525Z,8.18
2023-03-20T20:14:14.963Z,8.15
2023-03-20T20:16:45.683Z,8.12
2023-03-20T20:19:14.559Z,8.08
2023-03-20T20:24:31.498Z,7.99
2023-03-20T20:27:15.912Z,7.96
2023-03-20T20:29:49.227Z,7.94
2023-03-20T20:32:19.246Z,7.93
2023-03-20T20:40:29.397Z,7.91
2023-03-20T20:43:01.896Z,7.90
2023-03-20T20:45:32.110Z,7.91
2023-03-20T20:48:01.919Z,7.91
2023-03-20T20:50:32.760Z,7.92
2023-03-20T20:53:02.618Z,7.92
2023-03-20T20:55:31.203Z,7.88
2023-03-20T20:57:59.490Z,7.84
2023-03-20T21:00:45.323Z,7.80
2023-03-20T21:03:16.466Z,7.75
2023-03-20T21:05:44.821Z,7.69
2023-03-20T21:08:15.337Z,7.64
2023-03-20T21:10:45.217Z,7.58
2023-03-20T21:13:14.637Z,7.52
2023-03-20T21:15:45.756Z,7.45
2023-03-20T21:18:14.679Z,7.40
2023-03-20T21:20:43.074Z,7.33
2023-03-20T21:23:11.867Z,7.27
2023-03-20T21:25:42.164Z,7.21
2023-03-20T21:28:12.930Z,7.14
2023-03-20T21:30:54.659Z,7.08
2023-03-20T21:33:32.902Z,7.02
2023-03-20T21:36:01.401Z,6.97
2023-03-20T21:41:19.044Z,6.91
2023-03-20T21:43:47.833Z,6.90
2023-03-20T22:03:29.041Z,6.98
2023-03-20T22:09:51.764Z,7.06
2023-03-20T22:21:06.237Z,7.16
2023-03-20T22:26:56.687Z,7.28
2023-03-20T22:29:32.686Z,7.35
2023-03-20T22:32:18.650Z,7.42
2023-03-20T22:37:58.456Z,7.47
2023-03-20T22:43:38.402Z,7.48
2023-03-20T22:46:03.342Z,7.44
2023-03-20T22:48:35.690Z,7.39
2023-03-20T22:51:04.894Z,7.33
2023-03-20T22:53:34.321Z,7.28
2023-03-20T22:56:02.563Z,7.21
2023-03-20T22:58:31.046Z,7.16
2023-03-20T23:00:59.367Z,7.11
2023-03-20T23:03:40.943Z,7.07
2023-03-20T23:06:25.488Z,7.04
2023-03-20T23:09:03.144Z,7.02
2023-03-20T23:11:33.909Z,7.01
2023-03-20T23:14:03.794Z,7.03
2023-03-20T23:16:34.276Z,7.05
2023-03-20T23:19:02.742Z,7.08
2023-03-20T23:21:30.999Z,7.11
2023-03-20T23:23:59.276Z,7.13
2023-03-20T23:26:27.964Z,7.16
2023-03-20T23:28:56.249Z,7.20
2023-03-20T23:31:26.273Z,7.23
2023-03-20T23:33:57.204Z,7.27
2023-03-20T23:36:42.448Z,7.29
2023-03-20T23:39:14.331Z,7.31
2023-03-20T23:44:30.843Z,7.29
2023-03-20T23:47:01.386Z,7.29
2023-03-20T23:49:31.405Z,7.27
2023-03-20T23:51:59.785Z,7.24
2023-03-20T23:54:27.858Z,7.19
2023-03-20T23:56:56.233Z,7.15
2023-03-20T23:59:24.611Z,7.13
